Time;durP1;ratioP1;P1;durP2;ratioP2;P2;SDS_P1;SDS_P2;PMS_P1;PMS_P2;Temp;Humidity;BMP_temperature;BMP_pressure;BME280_temperature;BME280_humidity;BME280_pressure;Samples;Min_cycle;Max_cycle;Signal;HPM_P1;HPM_P2
2022/12/26 00:00:24;;;;;;;12.23;9.70;;;;;;;10.44;92.16;100629.16;5115366;28;20272;-71
2022/12/26 00:02:51;;;;;;;11.13;9.77;;;;;;;10.40;92.16;100622.31;5115182;28;20195;-71
2022/12/26 00:05:17;;;;;;;10.20;9.50;;;;;;;10.41;91.97;100632.91;5115691;28;20232;-71
2022/12/26 00:07:44;;;;;;;10.03;7.60;;;;;;;10.43;91.92;100632.78;5115205;28;20720;-71
2022/12/26 00:10:11;;;;;;;9.47;8.50;;;;;;;10.48;92.40;100641.34;5115099;28;20198;-71
2022/12/26 00:12:37;;;;;;;8.27;7.57;;;;;;;10.47;92.39;100634.28;5115069;28;20209;-71
2022/12/26 00:15:04;;;;;;;7.47;7.13;;;;;;;10.46;92.60;100637.91;5114890;28;20213;-71
2022/12/26 00:17:30;;;;;;;6.43;6.23;;;;;;;10.46;92.33;100637.91;5115200;28;20227;-71
2022/12/26 00:19:57;;;;;;;7.83;7.20;;;;;;;10.49;92.52;100637.72;5115104;28;20220;-71
2022/12/26 00:22:23;;;;;;;6.67;6.47;;;;;;;10.52;92.09;100631.28;5114733;28;20227;-71
2022/12/26 00:24:49;;;;;;;6.27;5.97;;;;;;;10.55;91.51;100644.44;5113987;28;20234;-71
2022/12/26 00:27:16;;;;;;;5.87;5.47;;;;;;;10.54;92.01;100640.06;5114983;28;20747;-71
2022/12/26 00:29:42;;;;;;;7.30;7.00;;;;;;;10.51;91.87;100641.13;5114761;28;20608;-71
2022/12/26 00:32:09;;;;;;;6.87;6.43;;;;;;;10.49;92.08;100644.91;5114663;28;20284;-71
2022/12/26 00:34:35;;;;;;;6.40;6.10;;;;;;;10.51;91.75;100642.94;5114640;28;20185;-71
2022/12/26 00:37:02;;;;;;;6.80;5.80;;;;;;;10.43;92.17;100641.66;5114507;28;20205;-71
2022/12/26 00:39:28;;;;;;;5.83;5.57;;;;;;;10.47;91.65;100634.28;5115065;28;20238;-71
2022/12/26 00:41:55;;;;;;;4.83;4.73;;;;;;;10.45;91.97;100636.22;5114491;28;20191;-71
2022/12/26 00:44:21;;;;;;;4.80;4.60;;;;;;;10.41;91.62;100643.63;5114755;28;20571;-71
2022/12/26 00:46:47;;;;;;;5.93;5.47;;;;;;;10.42;92.15;100634.63;5114357;28;20229;-71
2022/12/26 00:49:14;;;;;;;5.60;5.30;;;;;;;10.40;91.85;100623.16;5114592;28;20267;-71
2022/12/26 00:51:40;;;;;;;5.00;4.90;;;;;;;10.36;91.61;100627.00;5114278;28;20189;-71
2022/12/26 00:54:07;;;;;;;5.97;5.60;;;;;;;10.37;92.00;100630.56;5114304;28;20290;-71
2022/12/26 00:56:33;;;;;;;8.00;6.43;;;;;;;10.35;91.92;100638.69;5114624;28;20239;-71
2022/12/26 00:58:59;;;;;;;6.33;5.93;;;;;;;10.35;91.49;100641.38;5115003;28;20669;-71
2022/12/26 01:01:29;;;;;;;6.17;5.87;;;;;;;10.34;91.40;100644.16;5114665;28;20189;-71
2022/12/26 01:03:57;;;;;;;6.97;6.50;;;;;;;10.26;92.11;100654.53;5114824;28;20596;-71
2022/12/26 01:06:23;;;;;;;6.73;6.37;;;;;;;10.22;91.99;100654.78;5114090;28;20295;-71
2022/12/26 01:08:50;;;;;;;6.93;6.73;;;;;;;10.23;92.02;100661.81;5114278;28;20213;-71
2022/12/26 01:11:38;;;;;;;7.60;7.20;;;;;;;10.26;92.05;100668.78;5114005;28;20730;-71
2022/12/26 01:14:15;;;;;;;7.60;7.30;;;;;;;10.26;92.23;100670.59;5113944;28;20177;-71
2022/12/26 01:16:44;;;;;;;6.67;6.37;;;;;;;10.24;92.31;100662.66;5113994;28;20261;-71
2022/12/26 01:19:11;;;;;;;7.10;6.73;;;;;;;10.21;92.55;100670.94;5114382;28;20181;-71
2022/12/26 01:21:38;;;;;;;6.83;6.50;;;;;;;10.22;91.97;100664.59;5113957;28;20228;-71
2022/12/26 01:24:06;;;;;;;7.33;7.07;;;;;;;10.23;92.34;100664.50;5114186;28;20666;-71
2022/12/26 01:26:33;;;;;;;6.93;6.63;;;;;;;10.28;92.23;100669.56;5113844;28;20279;-71
2022/12/26 01:28:59;;;;;;;6.40;6.00;;;;;;;10.29;92.04;100660.53;5113722;28;20268;-71
2022/12/26 01:31:26;;;;;;;7.77;7.17;;;;;;;10.25;92.47;100683.13;5113782;28;20220;-71
2022/12/26 01:33:52;;;;;;;6.43;6.23;;;;;;;10.26;91.75;100675.97;5114023;28;20211;-71
2022/12/26 01:36:18;;;;;;;6.20;5.80;;;;;;;10.25;92.19;100675.09;5115259;28;20228;-71
2022/12/26 01:38:45;;;;;;;6.67;6.40;;;;;;;10.23;92.35;100683.22;5120406;28;20204;-71
2022/12/26 01:41:15;;;;;;;7.07;6.77;;;;;;;10.22;92.37;100691.34;5120490;28;20230;-71
2022/12/26 01:43:50;;;;;;;6.47;6.17;;;;;;;10.15;92.17;100701.66;5120791;28;20173;-71
2022/12/26 01:46:30;;;;;;;7.67;7.17;;;;;;;10.12;92.91;100693.84;5120533;27;20257;-71
2022/12/26 01:49:04;;;;;;;6.73;6.53;;;;;;;10.16;92.59;100697.16;5120718;28;20193;-71
2022/12/26 01:51:35;;;;;;;7.03;6.73;;;;;;;10.13;92.55;100703.59;5120749;28;20591;-70
2022/12/26 01:54:06;;;;;;;7.97;7.67;;;;;;;10.14;92.14;100717.81;5120388;28;20173;-70
2022/12/26 01:56:52;;;;;;;6.77;6.57;;;;;;;10.08;91.55;100700.38;5105357;28;20579;-71
2022/12/26 01:59:27;;;;;;;6.90;6.37;;;;;;;10.08;92.36;100689.69;5120247;28;20223;-71
2022/12/26 02:01:54;;;;;;;4.73;4.73;;;;;;;10.04;91.54;100688.19;5120893;28;20229;-71
2022/12/26 02:07:17;;;;;;;4.00;4.00;;;;;;;9.92;90.95;100686.38;5120278;28;20267;-70
2022/12/26 02:09:44;;;;;;;3.80;3.77;;;;;;;9.88;91.19;100683.03;5120521;28;20208;-70
2022/12/26 02:12:18;;;;;;;3.27;3.27;;;;;;;9.78;91.12;100688.16;5120698;28;20249;-70
2022/12/26 02:15:07;;;;;;;3.10;2.97;;;;;;;9.79;90.97;100697.03;5120375;28;20173;-71
2022/12/26 02:17:34;;;;;;;2.80;2.77;;;;;;;9.83;90.64;100693.19;5120124;28;20189;-71
2022/12/26 02:20:16;;;;;;;3.07;3.07;;;;;;;9.82;90.89;100704.00;5120137;28;20260;-71
2022/12/26 02:23:19;;;;;;;3.50;3.50;;;;;;;9.83;90.92;100706.56;5120408;28;20177;-71
2022/12/26 02:26:16;;;;;;;4.50;4.40;;;;;;;9.88;90.98;100703.59;5120209;27;20193;-71
2022/12/26 02:28:58;;;;;;;3.77;3.77;;;;;;;9.87;91.40;100704.56;5120595;28;20200;-71
2022/12/26 02:31:35;;;;;;;4.07;3.97;;;;;;;9.83;91.23;100711.06;5120342;28;20683;-71
2022/12/26 02:34:18;;;;;;;4.57;4.43;;;;;;;9.85;91.12;100706.47;5120314;28;20173;-71
2022/12/26 02:37:22;;;;;;;4.53;4.43;;;;;;;9.88;91.67;100700.91;5119844;28;20208;-71
2022/12/26 02:40:15;;;;;;;4.13;4.00;;;;;;;9.87;91.59;100708.09;5078442;28;20279;-71
2022/12/26 02:42:58;;;;;;;4.30;4.20;;;;;;;9.86;91.42;100713.53;5102447;28;20201;-71
2022/12/26 02:48:26;;;;;;;4.40;4.33;;;;;;;9.87;91.82;100729.50;5117618;28;20643;-71
2022/12/26 03:14:31;;;;;;;4.43;4.33;;;;;;;9.81;91.37;100735.25;5116276;28;20166;-70
2022/12/26 03:17:21;;;;;;;4.10;4.10;;;;;;;9.79;91.37;100734.47;5116166;28;20678;-71
2022/12/26 03:19:58;;;;;;;5.03;4.93;;;;;;;9.83;91.28;100740.50;5116391;28;20252;-71
2022/12/26 03:22:50;;;;;;;5.33;5.23;;;;;;;9.77;91.49;100733.75;5115995;28;20532;-71
2022/12/26 03:28:26;;;;;;;5.63;5.50;;;;;;;9.78;91.40;100728.28;5115993;28;20268;-70
2022/12/26 03:30:57;;;;;;;5.40;5.20;;;;;;;9.77;91.03;100729.25;5116460;28;20704;-70
2022/12/26 03:36:53;;;;;;;6.87;6.77;;;;;;;9.73;91.44;100738.44;5081839;28;20300;-71
2022/12/26 04:44:39;;;;;;;6.70;6.50;;;;;;;9.66;89.92;100782.59;5114729;28;20572;-70
2022/12/26 04:47:06;;;;;;;6.50;6.20;;;;;;;9.64;89.20;100778.31;5114314;28;20235;-70
2022/12/26 04:52:53;;;;;;;6.97;6.60;;;;;;;9.65;88.89;100778.25;5114553;28;20220;-70
2022/12/26 04:55:16;;;;;;;7.37;7.07;;;;;;;9.61;88.75;100778.53;5114194;28;20200;-70
2022/12/26 04:57:43;;;;;;;7.47;7.17;;;;;;;9.57;89.02;100777.88;5114155;28;20287;-70
2022/12/26 05:00:10;;;;;;;7.70;7.40;;;;;;;9.58;88.84;100775.13;5114199;28;20187;-70
2022/12/26 05:11:06;;;;;;;8.37;8.03;;;;;;;9.55;88.88;100769.09;5113744;28;20228;-70
2022/12/26 05:13:33;;;;;;;8.23;7.93;;;;;;;9.62;88.77;100774.91;5115170;28;20178;-70
2022/12/26 05:29:46;;;;;;;6.70;6.50;;;;;;;9.69;88.71;100781.53;5114011;28;20177;-71
2022/12/26 05:32:12;;;;;;;7.73;7.33;;;;;;;9.70;88.56;100791.31;5113752;28;20193;-70
2022/12/26 05:34:39;;;;;;;7.43;7.13;;;;;;;9.73;88.24;100793.75;5114253;28;20268;-70
2022/12/26 05:37:05;;;;;;;7.93;7.57;;;;;;;9.64;88.13;100810.41;5113637;28;20724;-70
2022/12/26 05:39:32;;;;;;;8.27;8.03;;;;;;;9.62;88.04;100799.81;5113885;28;20219;-70
2022/12/26 05:41:58;;;;;;;8.53;8.03;;;;;;;9.62;87.91;100797.13;5113935;28;20209;-70
2022/12/26 05:44:25;;;;;;;7.97;7.57;;;;;;;9.59;88.09;100803.56;5113611;28;20272;-70
2022/12/26 05:46:51;;;;;;;7.73;7.33;;;;;;;9.62;88.03;100798.97;5113837;28;20201;-70
2022/12/26 05:49:18;;;;;;;8.50;7.80;;;;;;;9.60;87.81;100801.75;5114104;28;20272;-70
2022/12/26 05:51:44;;;;;;;7.43;7.13;;;;;;;9.58;87.79;100807.19;5113571;28;20189;-70
2022/12/26 05:54:11;;;;;;;8.43;7.83;;;;;;;9.58;87.96;100793.81;5113508;28;20658;-70
2022/12/26 05:56:37;;;;;;;7.70;7.10;;;;;;;9.62;87.85;100797.13;5113452;28;20239;-70
2022/12/26 05:59:08;;;;;;;7.33;6.93;;;;;;;9.70;87.76;100802.00;5113443;28;20208;-70
2022/12/26 06:01:34;;;;;;;10.13;7.97;;;;;;;9.71;87.81;100809.06;5113725;28;20189;-70
2022/12/26 06:04:01;;;;;;;7.73;7.17;;;;;;;9.67;87.45;100800.34;5113435;28;20186;-70
2022/12/26 06:06:28;;;;;;;7.50;7.20;;;;;;;9.67;87.36;100807.53;5113485;28;20240;-70
2022/12/26 06:08:55;;;;;;;7.00;6.43;;;;;;;9.67;87.55;100791.47;5113683;28;20559;-70
2022/12/26 06:11:25;;;;;;;8.23;7.73;;;;;;;9.64;87.57;100781.84;5114175;28;20578;-70
2022/12/26 06:13:52;;;;;;;6.93;6.53;;;;;;;9.64;88.05;100786.34;5113354;28;20242;-70
2022/12/26 06:16:19;;;;;;;7.50;6.97;;;;;;;9.58;87.69;100777.78;5113255;28;20205;-71
2022/12/26 06:18:47;;;;;;;7.33;7.10;;;;;;;9.56;87.71;100765.47;5113451;28;20546;-70
2022/12/26 06:21:15;;;;;;;7.87;7.43;;;;;;;9.54;87.56;100770.06;5113359;28;20287;-70
2022/12/26 06:23:42;;;;;;;7.27;6.90;;;;;;;9.53;87.70;100766.53;5114816;28;20204;-70
2022/12/26 06:26:11;;;;;;;7.00;6.70;;;;;;;9.61;86.94;100760.69;5117375;28;20213;-70
2022/12/26 06:28:39;;;;;;;7.20;6.67;;;;;;;9.54;87.53;100768.25;5117136;28;20201;-70
2022/12/26 06:31:20;;;;;;;7.77;7.37;;;;;;;9.46;87.44;100759.91;5117359;28;20169;-70
2022/12/26 06:33:54;;;;;;;8.30;7.80;;;;;;;9.55;87.24;100772.66;5117608;28;20210;-70
2022/12/26 06:36:22;;;;;;;7.83;7.27;;;;;;;9.54;87.41;100762.91;5117007;28;20240;-70
2022/12/26 06:38:49;;;;;;;7.67;7.27;;;;;;;9.53;87.40;100763.03;5117160;28;20193;-70
2022/12/26 06:41:17;;;;;;;6.90;6.63;;;;;;;9.53;87.28;100768.38;5117128;28;20264;-70
2022/12/26 06:43:45;;;;;;;6.57;5.97;;;;;;;9.50;87.26;100772.06;5116784;28;20189;-70
2022/12/26 06:46:14;;;;;;;6.67;6.27;;;;;;;9.50;87.41;100779.25;5116671;28;20241;-70
2022/12/26 06:48:42;;;;;;;6.30;5.90;;;;;;;9.53;87.62;100781.72;5116672;28;20189;-70
2022/12/26 06:51:18;;;;;;;7.67;7.03;;;;;;;9.53;87.68;100782.59;5116755;28;20189;-70
2022/12/26 06:53:45;;;;;;;7.97;7.20;;;;;;;9.62;87.88;100782.91;5116657;28;20262;-70
2022/12/26 06:56:17;;;;;;;7.60;7.07;;;;;;;9.61;87.47;100789.25;5116513;28;20205;-70
2022/12/26 06:58:43;;;;;;;7.90;7.33;;;;;;;9.56;87.67;100802.91;5116763;28;20219;-70
2022/12/26 07:01:15;;;;;;;6.63;6.33;;;;;;;9.58;88.09;100814.38;5116529;28;20260;-70
2022/12/26 07:03:47;;;;;;;9.17;8.27;;;;;;;9.53;88.00;100806.66;5098146;28;20631;-70
2022/12/26 07:06:24;;;;;;;7.93;7.63;;;;;;;9.52;87.87;100807.59;5116552;28;20683;-70
2022/12/26 07:08:57;;;;;;;8.53;7.83;;;;;;;9.55;87.77;100804.72;5116654;28;20181;-70
2022/12/26 07:11:26;;;;;;;8.73;8.30;;;;;;;9.65;87.59;100806.78;5116238;28;20205;-70
2022/12/26 07:13:53;;;;;;;9.03;8.43;;;;;;;9.65;87.66;100794.28;5116220;28;20193;-70
2022/12/26 07:16:20;;;;;;;9.33;7.83;;;;;;;9.66;87.48;100814.69;5116178;28;20220;-70
2022/12/26 07:18:46;;;;;;;9.13;8.40;;;;;;;9.64;87.46;100837.16;5116041;28;20208;-70
2022/12/26 07:21:14;;;;;;;8.33;7.80;;;;;;;9.67;87.81;100837.78;5115949;28;20535;-70
2022/12/26 07:23:41;;;;;;;8.20;7.80;;;;;;;9.70;87.76;100845.63;5116307;28;20264;-70
2022/12/26 07:26:08;;;;;;;7.73;7.17;;;;;;;9.77;87.31;100838.91;5115935;28;20750;-71
2022/12/26 07:28:34;;;;;;;6.97;6.57;;;;;;;9.83;87.06;100826.94;5116271;28;20586;-71
2022/12/26 07:31:02;;;;;;;7.33;6.67;;;;;;;9.84;87.01;100825.13;5115868;28;20224;-70
2022/12/26 07:33:29;;;;;;;6.27;6.07;;;;;;;9.82;87.20;100832.38;5115824;28;20213;-70
2022/12/26 07:36:04;;;;;;;6.70;6.10;;;;;;;9.87;87.01;100823.09;5115247;28;20204;-70
2022/12/26 07:38:32;;;;;;;6.50;6.20;;;;;;;9.90;87.73;100836.28;5116244;28;20240;-70
2022/12/26 07:41:56;;;;;;;6.33;5.83;;;;;;;9.90;87.16;100836.28;5115744;28;20192;-70
2022/12/26 07:43:45;;;;;;;6.23;5.50;;;;;;;9.97;87.51;100839.41;5115565;28;20189;-70
2022/12/26 07:46:12;;;;;;;6.90;6.53;;;;;;;9.97;87.20;100820.66;5115499;28;20244;-70
2022/12/26 07:48:38;;;;;;;7.20;6.67;;;;;;;9.99;87.15;100838.31;5115533;28;20242;-70
2022/12/26 07:51:05;;;;;;;6.70;6.40;;;;;;;9.97;86.86;100842.06;5115748;28;20194;-70
2022/12/26 07:53:31;;;;;;;6.87;6.43;;;;;;;9.95;87.31;100850.19;5115473;28;20212;-70
2022/12/26 07:55:58;;;;;;;7.10;6.60;;;;;;;9.99;87.15;100848.19;5115362;28;20284;-70
2022/12/26 07:58:25;;;;;;;7.03;5.60;;;;;;;10.08;86.69;100858.28;5114323;28;20682;-70
2022/12/26 08:00:51;;;;;;;7.23;6.73;;;;;;;10.09;86.76;100851.94;5115311;28;20272;-70
2022/12/26 08:03:18;;;;;;;7.63;6.90;;;;;;;10.09;86.90;100853.75;5115259;28;20193;-70
2022/12/26 08:05:46;;;;;;;7.47;6.27;;;;;;;10.05;87.41;100863.81;5115180;28;20204;-71
2022/12/26 08:08:14;;;;;;;6.50;6.10;;;;;;;10.05;87.07;100846.91;5115110;28;20193;-70
2022/12/26 08:10:41;;;;;;;6.07;5.83;;;;;;;10.05;86.40;100869.16;5115685;28;20268;-70
2022/12/26 08:13:08;;;;;;;4.93;4.83;;;;;;;10.05;85.40;100858.44;5115364;28;20193;-70
2022/12/26 08:15:38;;;;;;;5.63;5.30;;;;;;;10.05;85.61;100863.81;5114990;28;20201;-70
2022/12/26 08:18:04;;;;;;;5.90;5.80;;;;;;;10.13;85.54;100872.19;5116053;28;20578;-70
2022/12/26 08:20:31;;;;;;;6.40;5.90;;;;;;;10.06;85.07;100881.59;5114984;28;20287;-70
2022/12/26 08:22:58;;;;;;;5.53;5.33;;;;;;;9.98;85.25;100879.44;5115710;28;20548;-70
2022/12/26 08:25:24;;;;;;;5.27;5.17;;;;;;;9.94;85.03;100877.06;5096722;28;20207;-70
2022/12/26 08:27:51;;;;;;;4.33;4.33;;;;;;;9.93;84.87;100875.34;5114914;28;20553;-71
2022/12/26 08:30:17;;;;;;;4.43;4.23;;;;;;;9.92;84.69;100866.47;5115393;28;20197;-69
2022/12/26 08:32:44;;;;;;;5.70;3.53;;;;;;;9.98;83.38;100860.72;5115331;28;20222;-69
2022/12/26 08:35:12;;;;;;;3.63;3.53;;;;;;;10.01;82.56;100856.97;5115137;28;20170;-69
2022/12/26 08:37:38;;;;;;;6.60;4.07;;;;;;;10.05;82.69;100862.94;5096826;28;20212;-69
2022/12/26 08:40:05;;;;;;;4.87;4.63;;;;;;;9.93;83.36;100848.59;5114737;28;20198;-69
2022/12/26 08:42:31;;;;;;;4.00;3.90;;;;;;;10.02;83.11;100847.97;5114827;28;20628;-69
2022/12/26 08:45:05;;;;;;;2.97;2.97;;;;;;;10.01;83.04;100854.28;5114366;28;20252;-70
2022/12/26 08:47:32;;;;;;;3.80;3.60;;;;;;;10.05;83.12;100855.78;5114120;28;20272;-69
2022/12/26 08:49:58;;;;;;;4.63;4.23;;;;;;;10.06;83.41;100867.38;5114380;28;20256;-70
2022/12/26 08:52:25;;;;;;;3.80;3.73;;;;;;;10.13;83.26;100866.00;5114296;28;20272;-70
2022/12/26 08:54:51;;;;;;;4.50;4.17;;;;;;;10.17;83.58;100868.31;5114243;28;20217;-70
2022/12/26 08:57:17;;;;;;;3.93;3.83;;;;;;;10.18;83.39;100877.22;5114234;28;20243;-70
2022/12/26 08:59:44;;;;;;;4.20;4.00;;;;;;;10.20;83.61;100878.84;5114386;28;20706;-70
2022/12/26 09:02:10;;;;;;;3.80;3.70;;;;;;;10.25;83.91;100894.59;5114419;28;20244;-70
2022/12/26 09:04:37;;;;;;;3.27;3.27;;;;;;;10.23;83.64;100891.16;5114416;28;20181;-70
2022/12/26 09:07:07;;;;;;;4.73;4.50;;;;;;;10.27;83.97;100895.34;5114062;28;20197;-70
2022/12/26 09:09:33;;;;;;;4.57;4.37;;;;;;;10.30;83.16;100891.63;5114023;28;20189;-70
2022/12/26 09:12:00;;;;;;;5.17;4.67;;;;;;;10.26;83.04;100895.44;5114505;28;20189;-69
2022/12/26 09:14:26;;;;;;;4.37;4.27;;;;;;;10.24;83.11;100903.56;5114752;28;20208;-69
2022/12/26 09:16:53;;;;;;;6.43;4.20;;;;;;;10.17;83.68;100896.91;5114217;28;20239;-70
2022/12/26 09:19:21;;;;;;;3.87;3.87;;;;;;;10.21;83.74;100907.31;5113818;28;20569;-70
2022/12/26 09:22:49;;;;;;;4.97;4.87;;;;;;;10.23;83.48;100910.75;5113913;28;20225;-70
2022/12/26 09:24:35;;;;;;;4.43;4.33;;;;;;;10.30;82.05;100897.84;5113820;28;20563;-69
2022/12/26 09:27:01;;;;;;;6.77;4.17;;;;;;;10.27;82.51;100899.81;5113738;28;20243;-70
2022/12/26 09:29:28;;;;;;;3.40;3.30;;;;;;;10.29;81.82;100903.28;5113773;28;20215;-69
2022/12/26 09:31:54;;;;;;;3.97;3.73;;;;;;;10.26;82.02;100911.50;5114100;28;20313;-69
2022/12/26 09:34:21;;;;;;;3.30;3.20;;;;;;;10.31;82.23;100902.22;5113764;28;20268;-69
2022/12/26 09:36:47;;;;;;;3.53;3.53;;;;;;;10.34;82.17;100909.19;5113913;28;20207;-70
2022/12/26 09:39:14;;;;;;;3.00;2.90;;;;;;;10.37;81.88;100903.66;5095590;28;20230;-70
2022/12/26 09:41:58;;;;;;;3.80;3.33;;;;;;;10.42;81.61;100912.22;5113717;28;20272;-69
2022/12/26 09:44:47;;;;;;;3.20;3.00;;;;;;;10.51;81.85;100911.59;5114240;28;20200;-69
2022/12/26 09:47:29;;;;;;;3.67;3.37;;;;;;;10.58;80.43;100920.03;5113598;28;20248;-70
2022/12/26 09:50:01;;;;;;;2.53;2.43;;;;;;;10.54;80.23;100918.56;5096210;28;20199;-70
2022/12/26 09:52:37;;;;;;;2.70;2.53;;;;;;;10.56;80.15;100920.16;5114154;28;20616;-70
2022/12/26 09:55:17;;;;;;;2.93;2.83;;;;;;;10.57;79.88;100921.00;5113777;28;20219;-70
2022/12/26 09:57:50;;;;;;;9.30;2.70;;;;;;;10.58;78.88;100920.91;5115529;28;20251;-70
2022/12/26 10:00:20;;;;;;;3.67;3.37;;;;;;;10.61;78.98;100920.69;5117611;28;20244;-70
2022/12/26 10:02:51;;;;;;;2.77;2.40;;;;;;;10.59;78.77;100932.47;5117590;28;20196;-69
2022/12/26 10:05:21;;;;;;;2.90;2.90;;;;;;;10.54;78.91;100935.47;5117529;28;20205;-70
2022/12/26 10:07:52;;;;;;;9.13;3.43;;;;;;;10.54;78.65;100950.69;5117872;28;20185;-70
2022/12/26 10:10:30;;;;;;;2.70;2.70;;;;;;;10.52;79.12;100937.41;5118084;28;20261;-69
2022/12/26 10:13:31;;;;;;;3.00;2.80;;;;;;;10.53;79.32;100928.38;5117729;28;20590;-69
2022/12/26 10:16:21;;;;;;;4.37;2.50;;;;;;;10.54;78.89;100935.47;5117323;28;20288;-69
2022/12/26 10:19:07;;;;;;;2.60;2.60;;;;;;;10.53;78.93;100944.44;5118018;28;20178;-69
2022/12/26 10:21:40;;;;;;;2.73;2.50;;;;;;;10.54;77.85;100935.47;5117307;28;20219;-70
2022/12/26 10:24:15;;;;;;;7.13;2.30;;;;;;;10.60;79.02;100937.72;5117566;28;20169;-71
2022/12/26 10:26:51;;;;;;;2.47;2.37;;;;;;;10.56;77.83;100924.63;5117451;28;20204;-71
2022/12/26 10:29:35;;;;;;;3.67;2.77;;;;;;;10.59;78.66;100925.28;5117270;28;20533;-71
2022/12/26 10:32:12;;;;;;;3.03;2.93;;;;;;;10.62;78.78;100933.13;5117115;28;20251;-70
2022/12/26 10:34:45;;;;;;;2.30;2.20;;;;;;;10.61;77.84;100925.22;5117133;28;20205;-69
2022/12/26 10:37:31;;;;;;;3.23;2.90;;;;;;;10.64;77.88;100917.81;5116948;28;20244;-69
2022/12/26 10:40:08;;;;;;;2.50;2.30;;;;;;;10.68;77.80;100934.53;5116811;28;20231;-70
2022/12/26 10:42:40;;;;;;;4.37;3.03;;;;;;;10.69;77.62;100927.34;5117470;28;20176;-70
2022/12/26 10:45:42;;;;;;;2.97;2.97;;;;;;;10.72;77.12;100935.16;5117129;28;20688;-70
2022/12/26 10:48:13;;;;;;;4.43;2.93;;;;;;;10.68;76.92;100939.88;5091165;28;20200;-71
2022/12/26 10:50:45;;;;;;;1.63;1.63;;;;;;;10.62;76.81;100924.22;5117170;28;20639;-70
2022/12/26 10:53:13;;;;;;;3.00;2.23;;;;;;;10.52;77.05;100923.16;5116982;28;20662;-70
2022/12/26 10:55:39;;;;;;;2.47;2.37;;;;;;;10.50;77.45;100933.97;5116879;28;20624;-71
2022/12/26 10:58:24;;;;;;;2.37;2.37;;;;;;;10.52;77.08;100937.41;5116892;28;20169;-70
2022/12/26 11:00:52;;;;;;;2.83;2.33;;;;;;;10.48;77.19;100924.31;5116697;28;20197;-70
2022/12/26 11:03:20;;;;;;;2.13;2.03;;;;;;;10.37;78.57;100936.63;5116466;28;20185;-70
2022/12/26 11:05:51;;;;;;;2.97;2.77;;;;;;;10.29;78.64;100925.56;5116377;28;20272;-70
2022/12/26 11:08:45;;;;;;;3.37;2.40;;;;;;;10.27;78.67;100930.16;5116463;28;20205;-70
2022/12/26 11:11:21;;;;;;;2.30;2.20;;;;;;;10.26;79.30;100933.78;5116460;28;20169;-70
2022/12/26 11:13:56;;;;;;;2.50;2.27;;;;;;;10.27;79.14;100937.28;5116570;28;20188;-70
2022/12/26 11:16:36;;;;;;;9.10;2.13;;;;;;;10.31;78.72;100933.50;5117082;28;20228;-70
2022/12/26 11:19:03;;;;;;;2.10;2.00;;;;;;;10.33;78.65;100935.09;5116651;28;20172;-70
2022/12/26 11:21:31;;;;;;;2.67;2.63;;;;;;;10.42;77.79;100930.97;5116008;28;20310;-70
2022/12/26 11:24:20;;;;;;;2.30;2.30;;;;;;;10.47;77.78;100931.50;5116112;28;20263;-70
2022/12/26 11:26:47;;;;;;;2.27;2.17;;;;;;;10.49;76.83;100926.91;5116298;28;20237;-70
2022/12/26 11:29:23;;;;;;;2.53;2.23;;;;;;;10.53;77.07;100927.53;5116244;28;20196;-68
2022/12/26 11:31:54;;;;;;;2.47;2.37;;;;;;;10.49;77.68;100932.25;5116195;28;20702;-69
2022/12/26 11:34:31;;;;;;;2.03;1.87;;;;;;;10.53;76.27;100924.84;5115939;28;20639;-70
2022/12/26 11:37:00;;;;;;;2.77;2.67;;;;;;;10.51;76.17;100933.00;5115798;28;20279;-69
2022/12/26 11:39:32;;;;;;;2.70;2.70;;;;;;;10.48;76.42;100935.03;5115819;28;20224;-69
2022/12/26 11:41:58;;;;;;;3.07;2.97;;;;;;;10.48;77.49;100941.22;5115651;28;20594;-69
2022/12/26 11:44:33;;;;;;;2.57;1.90;;;;;;;10.51;76.01;100924.09;5115962;28;20177;-69
2022/12/26 11:47:13;;;;;;;3.03;1.97;;;;;;;10.50;75.68;100917.03;5115671;28;20569;-69
2022/12/26 11:49:44;;;;;;;2.43;2.13;;;;;;;10.51;75.53;100914.28;5115918;28;20196;-69
2022/12/26 11:52:29;;;;;;;2.30;2.20;;;;;;;10.43;75.42;100922.81;5115830;28;20260;-69
2022/12/26 11:54:56;;;;;;;2.10;2.10;;;;;;;10.45;75.33;100920.03;5115467;28;20538;-70
2022/12/26 11:57:34;;;;;;;2.10;2.10;;;;;;;10.39;76.09;100918.63;5115377;28;20237;-70
2022/12/26 12:00:17;;;;;;;2.33;2.10;;;;;;;10.35;75.30;100906.41;5115907;28;20617;-70
2022/12/26 12:02:44;;;;;;;2.80;1.97;;;;;;;10.37;74.66;100920.56;5097284;28;20242;-70
2022/12/26 12:05:15;;;;;;;1.93;1.73;;;;;;;10.38;75.72;100926.75;5115165;28;20185;-70
2022/12/26 12:08:08;;;;;;;1.80;1.80;;;;;;;10.52;75.54;100924.00;5115186;28;20222;-69
2022/12/26 12:10:50;;;;;;;2.23;2.07;;;;;;;10.66;75.68;100936.44;5115128;28;20216;-69
2022/12/26 12:13:30;;;;;;;2.23;2.23;;;;;;;10.67;75.39;100931.94;5115647;28;20673;-69
2022/12/26 12:16:23;;;;;;;2.43;2.37;;;;;;;10.72;75.79;100936.00;5115337;28;20199;-70
2022/12/26 12:19:03;;;;;;;3.80;2.30;;;;;;;10.72;75.83;100927.13;5104425;28;20209;-69
2022/12/26 12:21:41;;;;;;;7.93;2.20;;;;;;;10.70;76.27;100931.72;5096814;28;20247;-69
2022/12/26 12:24:33;;;;;;;3.50;2.67;;;;;;;10.64;76.82;100933.88;5115475;28;20181;-69
2022/12/26 12:27:14;;;;;;;2.80;2.50;;;;;;;10.71;75.65;100923.59;5114842;28;20717;-67
2022/12/26 12:30:03;;;;;;;2.90;2.67;;;;;;;10.74;75.26;100922.53;5114791;28;20222;-67
2022/12/26 12:33:11;;;;;;;2.73;2.53;;;;;;;10.64;77.00;100957.13;5115127;28;20173;-67
2022/12/26 12:35:58;;;;;;;3.07;1.30;;;;;;;9.68;78.56;100978.59;5114588;28;20287;-67
2022/12/26 12:38:47;;;;;;;1.60;1.60;;;;;;;9.06;81.60;100996.75;5114931;28;20256;-67
2022/12/26 12:41:59;;;;;;;1.83;1.50;;;;;;;8.67;83.08;100990.22;5114813;28;20666;-67
2022/12/26 12:44:41;;;;;;;2.47;2.37;;;;;;;8.51;84.23;101003.59;5032161;28;20626;-67
2022/12/26 12:47:23;;;;;;;3.70;2.07;;;;;;;8.35;85.40;100997.41;5109052;28;20308;-68
2022/12/26 12:50:01;;;;;;;3.93;3.27;;;;;;;8.26;85.66;100999.66;5114501;28;20226;-68
2022/12/26 12:52:52;;;;;;;3.50;3.50;;;;;;;8.23;86.44;100994.47;5114499;28;20177;-68
2022/12/26 12:55:24;;;;;;;3.33;3.17;;;;;;;8.22;87.32;101008.78;5114600;28;20584;-70
2022/12/26 12:58:05;;;;;;;4.87;3.13;;;;;;;8.21;87.25;101004.41;5114532;28;20260;-69
2022/12/26 13:00:46;;;;;;;3.07;2.83;;;;;;;8.16;87.73;101010.94;5114452;28;20284;-69
2022/12/26 13:03:19;;;;;;;3.73;3.53;;;;;;;8.16;88.35;101022.47;5114500;28;20182;-69
2022/12/26 13:06:01;;;;;;;3.40;3.10;;;;;;;8.16;88.76;101024.28;5114341;28;20227;-69
2022/12/26 13:08:50;;;;;;;4.03;3.83;;;;;;;8.14;88.72;101034.16;5114442;28;20272;-69
2022/12/26 13:11:32;;;;;;;7.63;3.80;;;;;;;8.04;88.14;101036.50;5114346;28;20165;-69
2022/12/26 13:14:11;;;;;;;7.63;3.30;;;;;;;7.99;88.82;101041.22;5114389;28;20201;-69
2022/12/26 13:16:46;;;;;;;4.43;4.13;;;;;;;7.98;88.50;101040.38;5113934;28;20242;-70
2022/12/26 13:19:24;;;;;;;4.83;4.63;;;;;;;7.99;88.67;101033.22;5114323;28;20176;-70
2022/12/26 13:21:55;;;;;;;4.13;3.70;;;;;;;8.02;88.44;101025.03;5113877;28;20271;-69
2022/12/26 13:24:33;;;;;;;8.37;5.07;;;;;;;7.95;88.97;101024.56;5114248;28;20253;-69
2022/12/26 13:27:03;;;;;;;4.43;4.23;;;;;;;7.99;88.62;101035.91;5113744;28;20254;-69
2022/12/26 13:29:41;;;;;;;5.20;5.00;;;;;;;7.98;89.06;101043.03;5113879;28;20213;-69
2022/12/26 13:32:21;;;;;;;7.23;4.87;;;;;;;8.00;88.42;101054.50;5113395;28;20181;-69
2022/12/26 13:34:50;;;;;;;5.10;4.90;;;;;;;7.99;88.62;101050.09;5114170;28;20201;-69
2022/12/26 13:37:37;;;;;;;5.80;5.37;;;;;;;8.00;88.12;101051.81;5113710;28;20213;-69
2022/12/26 13:40:24;;;;;;;5.47;5.17;;;;;;;7.95;88.17;101051.22;5113897;28;20204;-69
2022/12/26 13:45:57;;;;;;;9.10;4.20;;;;;;;7.72;84.63;101070.28;5113746;28;20197;-69
2022/12/26 13:48:29;;;;;;;7.83;4.73;;;;;;;7.59;84.47;101078.06;5113668;28;20611;-69
2022/12/26 13:51:00;;;;;;;5.53;4.43;;;;;;;7.51;83.45;101070.50;5113609;28;20177;-69
2022/12/26 13:53:36;;;;;;;5.03;4.70;;;;;;;7.44;83.47;101077.94;5114125;28;20204;-69
2022/12/26 13:56:29;;;;;;;4.50;4.30;;;;;;;7.36;83.83;101071.31;5113857;28;20208;-69
2022/12/26 13:59:19;;;;;;;5.20;4.27;;;;;;;7.35;83.83;101074.91;5095364;28;20287;-69
2022/12/26 14:01:55;;;;;;;4.57;4.43;;;;;;;7.29;84.51;101073.44;5113832;28;20280;-69
2022/12/26 14:04:53;;;;;;;10.60;4.33;;;;;;;7.27;84.24;101083.31;5113444;28;20635;-69